createdAt,value
2023-02-19T00:40:27.796Z,39.30
2023-02-19T00:41:27.849Z,39.26
2023-02-19T02:07:33.185Z,31.85
2023-02-19T02:09:33.323Z,28.60
2023-02-19T03:12:37.841Z,32.05
2023-02-19T03:13:37.927Z,31.71
2023-02-19T03:14:37.991Z,30.52
2023-02-19T03:15:38.070Z,32.30
2023-02-19T03:16:38.175Z,31.80
2023-02-19T03:17:38.218Z,30.54
2023-02-19T03:18:38.298Z,34.35
2023-02-19T03:19:38.357Z,33.81
2023-02-19T03:20:38.430Z,33.95
2023-02-19T03:21:38.519Z,32.81
2023-02-19T03:22:38.596Z,28.14
2023-02-19T03:23:38.733Z,30.55
2023-02-19T03:24:39.578Z,34.19
2023-02-19T03:25:38.799Z,31.45
2023-02-19T03:26:38.878Z,29.34
2023-02-19T03:27:38.949Z,31.49
2023-02-19T03:28:39.021Z,34.57
2023-02-19T03:29:39.091Z,29.27
2023-02-19T05:24:47.872Z,37.81
2023-02-19T05:25:47.951Z,36.70
2023-02-19T05:26:48.016Z,36.88
2023-02-19T05:27:48.094Z,37.25
2023-02-19T05:28:48.158Z,34.42
2023-02-19T05:29:48.245Z,35.76
2023-02-19T05:30:48.342Z,36.72
2023-02-19T05:31:48.494Z,37.42
2023-02-19T05:32:48.490Z,35.78
2023-02-19T05:33:48.546Z,38.19
2023-02-19T05:34:48.616Z,38.17
2023-02-19T05:35:49.623Z,35.10
2023-02-19T05:36:48.765Z,35.91
2023-02-19T05:37:48.841Z,36.71
2023-02-19T05:38:49.136Z,32.55
2023-02-19T05:39:48.992Z,35.34
2023-02-19T05:40:49.069Z,36.80
2023-02-19T05:41:49.150Z,35.67
2023-02-19T05:42:49.217Z,35.57
2023-02-19T05:43:49.304Z,35.42
2023-02-19T05:44:49.382Z,31.28
2023-02-19T05:45:49.449Z,34.70
2023-02-19T05:46:49.589Z,34.91
2023-02-19T05:47:49.605Z,35.35
2023-02-19T05:48:49.684Z,33.62
2023-02-19T05:49:49.781Z,38.37
2023-02-19T05:50:49.826Z,37.32
2023-02-19T05:51:49.894Z,37.89
2023-02-19T05:52:49.974Z,38.03
2023-02-19T05:53:50.063Z,39.08
2023-02-19T05:54:50.137Z,34.74
2023-02-19T05:55:50.207Z,39.75
2023-02-19T05:56:50.301Z,38.24
2023-02-19T05:57:50.369Z,38.57
2023-02-19T05:58:50.450Z,40.18
2023-02-19T05:59:50.538Z,38.88
2023-02-19T06:00:50.603Z,36.58
2023-02-19T06:01:50.731Z,37.60
2023-02-19T06:03:50.860Z,39.28
2023-02-19T06:04:50.887Z,38.00
2023-02-19T07:42:57.832Z,48.90
2023-02-19T07:43:57.910Z,49.91
2023-02-19T07:45:00.562Z,48.29
2023-02-19T07:45:57.996Z,51.68
2023-02-19T07:46:58.085Z,48.47
2023-02-19T07:47:58.016Z,49.55
2023-02-19T07:48:58.029Z,49.43
2023-02-19T07:49:58.063Z,52.05
2023-02-19T07:50:58.068Z,48.88
2023-02-19T07:51:58.089Z,50.35
2023-02-19T07:52:58.668Z,49.61
2023-02-19T07:53:58.138Z,50.60
2023-02-19T07:54:58.155Z,50.96
2023-02-19T07:55:58.178Z,50.21
2023-02-19T07:56:58.229Z,49.51
2023-02-19T07:57:58.215Z,48.03
2023-02-19T07:58:58.234Z,49.48
2023-02-19T07:59:58.254Z,48.49
2023-02-19T08:00:58.283Z,50.78
2023-02-19T08:01:58.287Z,51.40
2023-02-19T08:02:58.391Z,49.33
2023-02-19T08:03:58.336Z,51.72
2023-02-19T08:04:58.345Z,50.94
2023-02-19T08:05:58.365Z,51.07
2023-02-19T08:06:58.370Z,48.59
2023-02-19T08:07:58.376Z,49.79
2023-02-19T08:08:58.400Z,47.96
2023-02-19T08:09:58.402Z,50.94
2023-02-19T08:10:58.414Z,51.04
2023-02-19T08:11:58.415Z,48.96
2023-02-19T08:12:58.422Z,47.68
2023-02-19T08:13:58.446Z,49.33
2023-02-19T08:14:58.445Z,47.68
2023-02-19T08:16:10.950Z,53.01
2023-02-19T08:16:59.520Z,53.09
2023-02-19T08:17:58.481Z,52.26
2023-02-19T08:18:58.484Z,51.16
2023-02-19T08:19:58.494Z,52.50
2023-02-19T08:20:58.503Z,49.73
2023-02-19T08:21:58.512Z,49.25
2023-02-19T08:22:58.516Z,53.61
2023-02-19T08:23:58.520Z,51.22
2023-02-19T08:24:58.540Z,52.82
2023-02-19T08:25:58.541Z,50.24
2023-02-19T08:26:58.551Z,52.75
2023-02-19T08:27:58.565Z,54.46
2023-02-19T08:28:58.591Z,53.39
2023-02-19T08:29:58.638Z,51.35
2023-02-19T08:30:58.697Z,50.61
2023-02-19T08:31:58.803Z,52.27
2023-02-19T08:33:00.683Z,50.18
2023-02-19T08:33:58.810Z,53.66
2023-02-19T08:34:58.831Z,53.35
2023-02-19T08:35:58.838Z,50.38
2023-02-19T08:36:58.844Z,54.03
2023-02-19T08:37:58.865Z,56.99
2023-02-19T08:38:58.864Z,50.28
2023-02-19T08:39:58.888Z,51.60
2023-02-19T08:49:58.963Z,54.64
2023-02-19T09:01:59.060Z,52.97
2023-02-19T09:02:59.061Z,54.09
2023-02-19T09:03:59.112Z,55.26
2023-02-19T09:04:59.070Z,55.63
2023-02-19T09:05:59.110Z,54.37
2023-02-19T09:06:59.134Z,55.23
2023-02-19T09:07:59.100Z,57.98
2023-02-19T09:08:59.100Z,55.00
2023-02-19T09:09:59.106Z,55.37
2023-02-19T09:10:59.129Z,55.79
2023-02-19T09:11:59.126Z,58.07
2023-02-19T09:12:59.136Z,58.32
2023-02-19T09:13:59.690Z,55.48
2023-02-19T09:14:59.142Z,60.38
2023-02-19T09:15:59.221Z,59.39
2023-02-19T09:16:59.152Z,56.56
2023-02-19T09:17:59.167Z,57.12
2023-02-19T09:18:59.187Z,58.71
2023-02-19T09:19:59.187Z,58.80
2023-02-19T09:20:59.183Z,57.17
2023-02-19T09:21:59.186Z,55.06
2023-02-19T09:22:59.194Z,58.77
2023-02-19T09:23:59.209Z,58.03
2023-02-19T09:24:59.197Z,57.96
2023-02-19T09:25:59.197Z,56.48
2023-02-19T09:26:59.240Z,58.53
2023-02-19T09:27:59.308Z,60.80
2023-02-19T09:28:59.440Z,57.81
2023-02-19T09:30:00.250Z,58.79
2023-02-19T09:30:59.537Z,57.13
2023-02-19T09:31:59.624Z,60.62
2023-02-19T09:32:59.651Z,59.26
2023-02-19T09:33:59.726Z,57.74
2023-02-19T09:34:59.786Z,61.35
2023-02-19T09:35:59.863Z,58.60
2023-02-19T09:36:59.932Z,60.93
2023-02-19T09:38:00.726Z,58.45
2023-02-19T09:39:00.052Z,59.16
2023-02-19T09:40:00.136Z,57.75
2023-02-19T09:41:00.185Z,60.41
2023-02-19T09:42:00.261Z,60.05
2023-02-19T09:43:01.801Z,60.43
2023-02-19T09:44:01.205Z,57.67
2023-02-19T09:45:00.462Z,61.99
2023-02-19T09:46:00.544Z,58.11
2023-02-19T09:47:00.581Z,61.15
2023-02-19T09:48:00.629Z,57.97
2023-02-19T09:49:00.689Z,59.79
2023-02-19T09:50:00.809Z,61.00
2023-02-19T09:51:00.804Z,60.13
2023-02-19T09:52:00.872Z,60.35
2023-02-19T09:53:00.922Z,61.91
2023-02-19T09:54:00.973Z,58.77
2023-02-19T09:55:01.033Z,61.88
2023-02-19T09:56:01.084Z,61.45
2023-02-19T09:57:01.138Z,61.96
2023-02-19T09:58:01.180Z,59.87
2023-02-19T09:59:01.231Z,64.17
2023-02-19T10:00:01.285Z,66.00
2023-02-19T10:01:01.334Z,59.83
2023-02-19T10:02:01.373Z,61.70
2023-02-19T10:03:01.420Z,62.49
2023-02-19T10:04:01.468Z,58.69
2023-02-19T10:05:01.553Z,61.26
2023-02-19T10:06:01.554Z,59.60
2023-02-19T10:07:01.607Z,61.54
2023-02-19T10:08:01.644Z,65.86
2023-02-19T10:09:01.678Z,64.98
2023-02-19T10:10:01.722Z,62.76
2023-02-19T10:11:01.776Z,64.18
2023-02-19T10:12:01.809Z,63.56
2023-02-19T10:14:01.907Z,66.75
2023-02-19T10:15:01.996Z,64.77
2023-02-19T10:16:02.022Z,63.06
2023-02-19T10:17:02.034Z,64.54
2023-02-19T10:18:02.081Z,63.08
2023-02-19T10:19:02.113Z,64.22
2023-02-19T10:20:02.142Z,65.83
2023-02-19T10:21:02.188Z,63.74
2023-02-19T10:22:02.223Z,64.78
2023-02-19T10:23:02.241Z,70.25
2023-02-19T10:24:02.357Z,69.94
2023-02-19T10:25:02.311Z,66.05
2023-02-19T10:26:02.347Z,67.03
2023-02-19T10:27:02.387Z,65.85
2023-02-19T10:28:02.405Z,67.23
2023-02-19T10:29:02.420Z,66.40
2023-02-19T14:59:07.820Z,83.28
2023-02-19T15:25:07.805Z,79.00
2023-02-19T15:26:07.851Z,77.67
2023-02-19T15:27:07.907Z,79.62
2023-02-19T15:28:07.966Z,78.34
2023-02-19T15:29:08.026Z,75.31
2023-02-19T15:30:08.832Z,76.94
2023-02-19T15:32:08.308Z,78.10
2023-02-19T15:33:08.246Z,81.21
2023-02-19T15:34:08.297Z,77.61
2023-02-19T15:35:08.359Z,80.71
2023-02-19T15:36:08.400Z,76.53
2023-02-19T15:37:08.442Z,78.63
2023-02-19T15:38:08.450Z,78.68
2023-02-19T15:39:08.462Z,79.85
2023-02-19T15:40:08.467Z,73.96
2023-02-19T15:41:08.463Z,78.65
2023-02-19T15:42:08.466Z,78.99
2023-02-19T15:43:08.470Z,76.47
2023-02-19T15:44:08.469Z,78.42
2023-02-19T15:45:08.461Z,77.97
2023-02-19T15:46:08.518Z,77.64
2023-02-19T15:47:08.493Z,79.50
2023-02-19T15:48:08.499Z,74.91
2023-02-19T15:49:08.566Z,77.27
2023-02-19T15:50:08.498Z,76.81
2023-02-19T15:51:08.577Z,77.62
2023-02-19T15:52:08.502Z,77.90
2023-02-19T15:53:08.502Z,79.34
2023-02-19T15:54:08.520Z,78.47
2023-02-19T15:55:08.537Z,77.16
2023-02-19T15:56:08.572Z,78.33
2023-02-19T15:57:08.554Z,74.94
2023-02-19T15:58:08.575Z,75.34
2023-02-19T15:59:08.578Z,76.04
2023-02-19T16:00:08.597Z,76.08
2023-02-19T16:01:08.591Z,76.03
2023-02-19T16:02:08.571Z,73.87
2023-02-19T16:03:08.706Z,80.03
2023-02-19T16:04:08.710Z,78.57
2023-02-19T16:09:08.611Z,82.87
2023-02-19T16:10:08.660Z,76.29
2023-02-19T16:11:08.823Z,81.08
2023-02-19T16:12:08.666Z,80.88
2023-02-19T16:13:08.734Z,76.82
2023-02-19T16:14:08.663Z,78.83
2023-02-19T16:15:08.669Z,79.41
2023-02-19T16:16:08.770Z,77.55
2023-02-19T16:17:08.700Z,77.37
2023-02-19T16:18:08.744Z,79.99
2023-02-19T16:19:08.714Z,79.91
2023-02-19T16:20:08.729Z,74.45
2023-02-19T16:21:08.949Z,81.89
2023-02-19T16:22:08.763Z,82.73
2023-02-19T16:23:08.784Z,76.62
2023-02-19T16:24:09.768Z,75.99
2023-02-19T16:25:08.822Z,81.38
2023-02-19T16:26:08.846Z,82.25
2023-02-19T16:27:08.856Z,81.13
2023-02-19T16:28:08.896Z,83.17
2023-02-19T16:29:08.901Z,82.66
2023-02-19T16:30:08.973Z,80.55
2023-02-19T16:31:08.985Z,80.42
2023-02-19T16:32:09.014Z,82.58
2023-02-19T16:33:09.000Z,79.51
2023-02-19T16:34:09.017Z,78.94
2023-02-19T16:35:09.049Z,81.04
2023-02-19T16:36:09.072Z,78.62
2023-02-19T16:37:09.094Z,82.99
2023-02-19T16:38:09.116Z,79.47
2023-02-19T16:39:09.178Z,82.89
2023-02-19T16:40:09.199Z,83.07
2023-02-19T16:41:09.495Z,82.42
2023-02-19T16:42:09.218Z,82.63
2023-02-19T16:43:09.249Z,82.84
2023-02-19T16:44:09.295Z,84.85
2023-02-19T16:45:09.300Z,85.06
2023-02-19T16:46:09.385Z,84.27
2023-02-19T16:47:09.364Z,79.71
2023-02-19T16:48:09.399Z,83.61
2023-02-19T16:49:09.413Z,82.15
2023-02-19T16:50:09.449Z,82.78
2023-02-19T16:51:09.732Z,81.80
2023-02-19T16:52:09.528Z,80.01
2023-02-19T16:53:09.571Z,81.79
2023-02-19T16:54:09.610Z,83.69
2023-02-19T16:55:09.647Z,82.60
2023-02-19T16:56:09.744Z,82.29
2023-02-19T16:57:09.717Z,82.82
2023-02-19T16:58:09.754Z,80.17
2023-02-19T16:59:09.790Z,81.12
2023-02-19T17:00:09.840Z,81.40
2023-02-19T17:01:10.081Z,81.44
2023-02-19T17:02:09.980Z,82.84
2023-02-19T17:03:09.965Z,83.93
2023-02-19T17:04:10.081Z,80.51
2023-02-19T17:05:10.046Z,80.99
2023-02-19T17:06:10.088Z,81.81
2023-02-19T17:07:10.142Z,81.24
2023-02-19T17:08:10.179Z,82.63
2023-02-19T17:09:10.230Z,79.55
2023-02-19T17:10:10.284Z,81.23
2023-02-19T17:11:10.783Z,79.52
2023-02-19T17:12:10.360Z,80.53
2023-02-19T17:13:10.405Z,81.98
2023-02-19T17:14:10.441Z,83.89
2023-02-19T17:15:10.497Z,77.98
2023-02-19T17:16:10.558Z,78.01
2023-02-19T17:17:10.584Z,81.45
2023-02-19T17:18:10.645Z,81.54
2023-02-19T17:19:10.680Z,78.61
2023-02-19T17:20:10.749Z,80.90
2023-02-19T17:21:11.155Z,79.56
2023-02-19T17:22:10.844Z,75.78
2023-02-19T17:23:10.899Z,78.86
2023-02-19T17:24:10.944Z,78.68
2023-02-19T17:25:11.015Z,77.31
2023-02-19T17:26:11.055Z,77.00
2023-02-19T17:27:11.112Z,79.05
2023-02-19T17:28:11.167Z,76.89
2023-02-19T17:29:11.224Z,74.12
2023-02-19T17:30:11.309Z,77.25
2023-02-19T17:31:11.714Z,80.46
2023-02-19T17:32:11.511Z,76.67
2023-02-19T17:33:11.442Z,80.06
2023-02-19T17:34:11.493Z,82.72
2023-02-19T17:35:11.551Z,76.16
2023-02-19T17:36:11.635Z,79.54
2023-02-19T17:37:11.672Z,80.71
2023-02-19T17:38:12.422Z,79.40
2023-02-19T17:39:11.855Z,76.69
2023-02-19T17:40:12.818Z,76.29
2023-02-19T17:41:12.126Z,77.30
2023-02-19T17:42:11.958Z,74.87
2023-02-19T17:43:12.032Z,81.43
2023-02-19T17:44:12.093Z,75.00
2023-02-19T17:45:12.138Z,81.44
2023-02-19T17:46:12.230Z,78.36
2023-02-19T17:47:12.257Z,72.46
2023-02-19T17:48:12.322Z,74.64
2023-02-19T17:49:12.382Z,76.46
2023-02-19T17:50:12.447Z,76.25
2023-02-19T20:27:18.501Z,83.24
2023-02-19T20:41:17.939Z,89.32
2023-02-19T20:49:17.816Z,86.00
2023-02-19T20:50:17.800Z,88.35
2023-02-19T20:51:17.830Z,84.10
2023-02-19T20:52:17.847Z,87.05
2023-02-19T20:54:17.892Z,89.99
2023-02-19T20:55:17.901Z,87.67
2023-02-19T20:56:17.916Z,89.17
2023-02-19T20:57:17.933Z,88.32
2023-02-19T20:58:19.451Z,87.97
2023-02-19T20:59:17.972Z,85.43
2023-02-19T21:00:17.966Z,85.34
2023-02-19T21:01:18.005Z,86.79
2023-02-19T21:02:18.081Z,88.14
2023-02-19T21:03:18.023Z,87.47
2023-02-19T21:04:18.035Z,86.90
2023-02-19T21:05:18.056Z,88.50
2023-02-19T21:06:18.065Z,83.82
2023-02-19T21:07:18.093Z,91.14
2023-02-19T21:08:18.089Z,87.73
2023-02-19T21:09:18.109Z,87.42
2023-02-19T21:10:18.405Z,87.10
2023-02-19T21:11:18.142Z,88.56
2023-02-19T21:12:18.170Z,88.92
2023-02-19T21:13:18.189Z,87.92
2023-02-19T21:14:18.207Z,88.79
2023-02-19T21:15:18.220Z,88.48
2023-02-19T21:16:18.281Z,89.90
2023-02-19T21:17:18.237Z,87.52
2023-02-19T21:18:18.261Z,90.22
2023-02-19T21:19:18.282Z,87.70
2023-02-19T21:20:18.314Z,88.12
2023-02-19T21:21:18.311Z,88.84
2023-02-19T21:22:18.330Z,89.98
2023-02-19T21:23:18.419Z,90.58
2023-02-19T21:24:18.378Z,86.59
2023-02-19T21:25:18.406Z,90.37
2023-02-19T21:26:18.428Z,89.74
2023-02-19T21:27:18.449Z,87.98
2023-02-19T21:28:18.489Z,89.92
2023-02-19T21:30:18.568Z,87.07
2023-02-19T21:46:18.881Z,87.60
